Friday, October 24, 2014, 12:07 PM EDT

KOXB, Ocean City Municipal Airport

Location: Berlin, MD, United States Lat: 38.317
Local Time: 12:07 PM EDT (16:07 GMT) Lon: -75.117
Time Zone: US/Eastern Elev: 13 ft

Show me the last for .
Show Decoded

2014-10-24 11:53 METAR KOXB 241553Z AUTO 33018G23KT 10SM FEW037 18/08 A2989 RMK AO2 SLP121
                 T01780083 TSNO =
2014-10-24 10:53 METAR KOXB 241453Z AUTO 32012G22KT 290V350 10SM CLR 17/08 A2990 RMK AO2 SLP124
                 T01670083 50002 TSNO =
2014-10-24 09:53 METAR KOXB 241353Z AUTO 31007G19KT 10SM BKN035 14/08 A2990 RMK AO2 SLP125
                 T01440083 TSNO =
2014-10-24 08:53 METAR KOXB 241253Z AUTO 29005KT 10SM OVC035 12/07 A2991 RMK AO2 SLP127 T01220072
                 TSNO =
2014-10-24 07:53 METAR KOXB 241153Z AUTO 30006KT 10SM BKN036 11/07 A2989 RMK AO2 SLP121 T01110067
                 10122 20100 53009 TSNO =
2014-10-24 06:53 METAR KOXB 241053Z AUTO 32005KT 10SM FEW038 11/07 A2988 RMK AO2 SLP117 T01110072
                 TSNO =
2014-10-24 05:53 METAR KOXB 240953Z AUTO 31005KT 10SM OVC044 12/08 A2987 RMK AO2 SLP114 T01220078
                 TSNO =
2014-10-24 04:53 METAR KOXB 240853Z AUTO 28005KT 10SM OVC047 12/08 A2986 RMK AO2 SLP113 T01170078
                 53007 TSNO =
2014-10-24 03:53 METAR KOXB 240753Z AUTO 29004KT 10SM OVC049 11/07 A2985 RMK AO2 SLP109 T01060072
                 TSNO =
2014-10-24 02:53 METAR KOXB 240653Z AUTO 32006KT 10SM FEW044 11/07 A2984 RMK AO2 SLP105 T01110072
                 TSNO =
2014-10-24 01:53 METAR KOXB 240553Z AUTO 29003KT 10SM BKN075 10/07 A2984 RMK AO2 SLP106 T01000072
                 10133 20100 58004 TSNO =
2014-10-24 00:53 METAR KOXB 240453Z AUTO VRB03KT 10SM CLR 11/07 A2985 RMK AO2 SLP108 T01110072
                 401440100 TSNO =
2014-10-23 23:53 METAR KOXB 240353Z AUTO 33008KT 10SM CLR 12/07 A2985 RMK AO2 SLP109 T01170072
                 TSNO =
2014-10-23 22:53 METAR KOXB 240253Z AUTO 34010KT 10SM CLR 12/07 A2986 RMK AO2 SLP109 T01220072
                 53010 TSNO =
2014-10-23 21:53 METAR KOXB 240153Z AUTO 33007KT 10SM FEW090 12/08 A2984 RMK AO2 SLP105 T01220078
                 TSNO =
2014-10-23 20:53 METAR KOXB 240053Z AUTO 33008KT 10SM FEW080 13/08 A2983 RMK AO2 SLP101 T01280078
                 TSNO =
2014-10-23 19:53 METAR KOXB 232353Z AUTO 34009KT 10SM OVC085 13/08 A2983 RMK AO2 SLP099 T01330083
                 10144 20133 51017 TSNO =
2014-10-23 18:53 METAR KOXB 232253Z AUTO 32012G18KT 10SM BKN042 BKN050 OVC080 13/08 A2981 RMK AO2
                 SLP095 T01330083 TSNO =
2014-10-23 17:53 METAR KOXB 232153Z AUTO 33014G23KT 10SM BKN034 OVC043 14/08 A2980 RMK AO2 SLP090
                 T01390083 TSNO =
2014-10-23 16:53 METAR KOXB 232053Z AUTO 33010G20KT 10SM OVC031 14/08 A2978 RMK AO2 SLP083
                 T01440083 53003 TSNO =
2014-10-23 15:53 METAR KOXB 231953Z AUTO 32008KT 10SM OVC037 14/08 A2977 RMK AO2 PK WND
                 34026/1907 SLP081 T01390083 TSNO =
2014-10-23 15:33 METAR KOXB 231933Z AUTO 32009KT 10SM OVC033 14/08 A2977 RMK AO2 PK WND
                 34026/1907 T01390083 TSNO =
2014-10-23 15:16 METAR KOXB 231916Z AUTO 33013G26KT 10SM BKN029 OVC035 14/08 A2977 RMK AO2 PK WND
                 34026/1907 T01390083 TSNO =
2014-10-23 14:53 METAR KOXB 231853Z AUTO 34013G20KT 10SM OVC031 14/08 A2976 RMK AO2 SLP078
                 T01390083 TSNO =
2014-10-23 14:45 METAR KOXB 231845Z AUTO 33012G18KT 10SM OVC031 14/08 A2976 RMK AO2 T01440083
                 TSNO =
2014-10-23 13:53 METAR KOXB 231753Z AUTO 33010G18KT 10SM OVC028 13/08 A2977 RMK AO2 SLP079 60000
                 T01330083 10133 20111 58009 TSNO =
2014-10-23 12:53 METAR KOXB 231653Z AUTO 31011G17KT 10SM OVC025 13/08 A2978 RMK AO2 SLP084
                 T01330083 TSNO =

Support USWX by starting your Amazon purchase here.